sensor_id;sensor_type;location;lat;lon;timestamp;temperature;humidity
48836;DHT22;62581;47.342;7.908;2024-03-08T00:01:21;4.00;99.90
48836;DHT22;62581;47.342;7.908;2024-03-08T00:03:50;4.00;99.90
48836;DHT22;62581;47.342;7.908;2024-03-08T00:06:17;4.00;99.90
48836;DHT22;62581;47.342;7.908;2024-03-08T00:08:44;3.90;99.90
48836;DHT22;62581;47.342;7.908;2024-03-08T00:11:11;3.90;99.90
48836;DHT22;62581;47.342;7.908;2024-03-08T00:13:38;3.90;99.90
48836;DHT22;62581;47.342;7.908;2024-03-08T00:16:06;3.90;99.90
48836;DHT22;62581;47.342;7.908;2024-03-08T00:18:34;3.90;99.90
48836;DHT22;62581;47.342;7.908;2024-03-08T00:21:03;3.90;99.90
48836;DHT22;62581;47.342;7.908;2024-03-08T00:23:31;3.90;99.90
48836;DHT22;62581;47.342;7.908;2024-03-08T00:25:59;3.90;99.90
48836;DHT22;62581;47.342;7.908;2024-03-08T00:28:26;3.80;99.90
48836;DHT22;62581;47.342;7.908;2024-03-08T00:30:53;3.70;99.90
48836;DHT22;62581;47.342;7.908;2024-03-08T00:33:20;3.70;99.90
48836;DHT22;62581;47.342;7.908;2024-03-08T00:35:47;3.60;99.90
48836;DHT22;62581;47.342;7.908;2024-03-08T00:38:15;3.50;99.90
48836;DHT22;62581;47.342;7.908;2024-03-08T00:40:44;3.40;99.90
48836;DHT22;62581;47.342;7.908;2024-03-08T00:43:11;3.40;99.90
48836;DHT22;62581;47.342;7.908;2024-03-08T00:45:39;3.30;99.90
48836;DHT22;62581;47.342;7.908;2024-03-08T00:48:08;3.30;99.90
48836;DHT22;62581;47.342;7.908;2024-03-08T00:50:36;3.20;99.90
48836;DHT22;62581;47.342;7.908;2024-03-08T00:53:03;3.20;99.90
48836;DHT22;62581;47.342;7.908;2024-03-08T00:55:33;3.10;99.90
48836;DHT22;62581;47.342;7.908;2024-03-08T00:58:01;3.10;99.90
48836;DHT22;62581;47.342;7.908;2024-03-08T01:00:28;3.00;99.90
48836;DHT22;62581;47.342;7.908;2024-03-08T01:02:55;2.90;99.90
48836;DHT22;62581;47.342;7.908;2024-03-08T01:05:22;2.90;99.90
48836;DHT22;62581;47.342;7.908;2024-03-08T01:07:50;2.90;99.90
48836;DHT22;62581;47.342;7.908;2024-03-08T01:10:17;2.80;99.90
48836;DHT22;62581;47.342;7.908;2024-03-08T01:12:46;2.80;99.90
48836;DHT22;62581;47.342;7.908;2024-03-08T01:15:13;2.80;99.90
48836;DHT22;62581;47.342;7.908;2024-03-08T01:17:40;2.80;99.90
48836;DHT22;62581;47.342;7.908;2024-03-08T01:20:08;2.90;99.90
48836;DHT22;62581;47.342;7.908;2024-03-08T01:22:36;2.90;99.90
48836;DHT22;62581;47.342;7.908;2024-03-08T01:25:04;2.90;99.90
48836;DHT22;62581;47.342;7.908;2024-03-08T01:27:31;2.90;99.90
48836;DHT22;62581;47.342;7.908;2024-03-08T01:29:59;2.90;99.90
48836;DHT22;62581;47.342;7.908;2024-03-08T01:32:27;2.90;99.90
48836;DHT22;62581;47.342;7.908;2024-03-08T01:34:54;2.90;99.90
48836;DHT22;62581;47.342;7.908;2024-03-08T01:37:20;3.00;99.90
48836;DHT22;62581;47.342;7.908;2024-03-08T01:39:47;2.90;99.90
48836;DHT22;62581;47.342;7.908;2024-03-08T01:42:16;2.90;99.90
48836;DHT22;62581;47.342;7.908;2024-03-08T01:44:43;2.90;99.90
48836;DHT22;62581;47.342;7.908;2024-03-08T01:47:12;3.00;99.90
48836;DHT22;62581;47.342;7.908;2024-03-08T01:49:38;3.00;99.90
48836;DHT22;62581;47.342;7.908;2024-03-08T01:52:06;3.10;99.90
48836;DHT22;62581;47.342;7.908;2024-03-08T01:54:34;3.10;99.90
48836;DHT22;62581;47.342;7.908;2024-03-08T01:57:02;3.20;99.90
48836;DHT22;62581;47.342;7.908;2024-03-08T01:59:29;3.20;99.90
48836;DHT22;62581;47.342;7.908;2024-03-08T02:02:01;3.20;99.90
48836;DHT22;62581;47.342;7.908;2024-03-08T02:04:30;3.20;99.90
48836;DHT22;62581;47.342;7.908;2024-03-08T02:06:57;3.30;99.90
48836;DHT22;62581;47.342;7.908;2024-03-08T02:09:24;3.30;99.90
48836;DHT22;62581;47.342;7.908;2024-03-08T02:11:51;3.30;99.90
48836;DHT22;62581;47.342;7.908;2024-03-08T02:14:20;3.30;99.90
48836;DHT22;62581;47.342;7.908;2024-03-08T02:16:47;3.30;99.90
48836;DHT22;62581;47.342;7.908;2024-03-08T02:19:14;3.30;99.90
48836;DHT22;62581;47.342;7.908;2024-03-08T02:21:43;3.30;99.90
48836;DHT22;62581;47.342;7.908;2024-03-08T02:24:12;3.30;99.90
48836;DHT22;62581;47.342;7.908;2024-03-08T02:26:40;3.30;99.90
48836;DHT22;62581;47.342;7.908;2024-03-08T02:29:08;3.30;99.90
48836;DHT22;62581;47.342;7.908;2024-03-08T02:31:35;3.30;99.90
48836;DHT22;62581;47.342;7.908;2024-03-08T02:34:02;3.30;99.90
48836;DHT22;62581;47.342;7.908;2024-03-08T02:36:30;3.30;99.90
48836;DHT22;62581;47.342;7.908;2024-03-08T02:39:02;3.30;99.90
48836;DHT22;62581;47.342;7.908;2024-03-08T02:41:30;3.30;99.90
48836;DHT22;62581;47.342;7.908;2024-03-08T02:43:58;3.20;99.90
48836;DHT22;62581;47.342;7.908;2024-03-08T02:46:25;3.20;99.90
48836;DHT22;62581;47.342;7.908;2024-03-08T02:48:52;3.20;99.90
48836;DHT22;62581;47.342;7.908;2024-03-08T02:51:19;3.20;99.90
48836;DHT22;62581;47.342;7.908;2024-03-08T02:53:46;3.20;99.90
48836;DHT22;62581;47.342;7.908;2024-03-08T02:56:18;3.20;99.90
48836;DHT22;62581;47.342;7.908;2024-03-08T02:58:47;3.20;99.90
48836;DHT22;62581;47.342;7.908;2024-03-08T03:01:14;3.10;99.90
48836;DHT22;62581;47.342;7.908;2024-03-08T03:03:41;3.20;99.90
48836;DHT22;62581;47.342;7.908;2024-03-08T03:06:08;3.10;99.90
48836;DHT22;62581;47.342;7.908;2024-03-08T03:08:36;3.20;99.90
48836;DHT22;62581;47.342;7.908;2024-03-08T03:11:04;3.10;99.90
48836;DHT22;62581;47.342;7.908;2024-03-08T03:13:32;3.20;99.90
48836;DHT22;62581;47.342;7.908;2024-03-08T03:15:59;3.10;99.90
48836;DHT22;62581;47.342;7.908;2024-03-08T03:18:27;3.20;99.90
48836;DHT22;62581;47.342;7.908;2024-03-08T03:20:54;3.20;99.90
48836;DHT22;62581;47.342;7.908;2024-03-08T03:23:21;3.20;99.90
48836;DHT22;62581;47.342;7.908;2024-03-08T03:25:49;3.20;99.90
48836;DHT22;62581;47.342;7.908;2024-03-08T03:28:17;3.20;99.90
48836;DHT22;62581;47.342;7.908;2024-03-08T03:30:48;3.30;99.90
48836;DHT22;62581;47.342;7.908;2024-03-08T03:33:16;3.30;99.90
48836;DHT22;62581;47.342;7.908;2024-03-08T03:35:43;3.20;99.90
48836;DHT22;62581;47.342;7.908;2024-03-08T03:38:11;3.30;99.90
48836;DHT22;62581;47.342;7.908;2024-03-08T03:40:40;3.30;99.90
48836;DHT22;62581;47.342;7.908;2024-03-08T03:43:07;3.30;99.90
48836;DHT22;62581;47.342;7.908;2024-03-08T03:45:35;3.30;99.90
48836;DHT22;62581;47.342;7.908;2024-03-08T03:48:05;3.30;99.90
48836;DHT22;62581;47.342;7.908;2024-03-08T03:50:34;3.30;99.90
48836;DHT22;62581;47.342;7.908;2024-03-08T03:53:02;3.30;99.90
48836;DHT22;62581;47.342;7.908;2024-03-08T03:55:29;3.30;99.90
48836;DHT22;62581;47.342;7.908;2024-03-08T03:57:56;3.40;99.90
48836;DHT22;62581;47.342;7.908;2024-03-08T04:00:24;3.50;99.90
48836;DHT22;62581;47.342;7.908;2024-03-08T04:02:52;3.50;99.90
48836;DHT22;62581;47.342;7.908;2024-03-08T04:05:22;3.50;99.90
48836;DHT22;62581;47.342;7.908;2024-03-08T04:07:48;3.50;99.90
48836;DHT22;62581;47.342;7.908;2024-03-08T04:10:15;3.40;99.90
48836;DHT22;62581;47.342;7.908;2024-03-08T04:12:43;3.50;99.90
48836;DHT22;62581;47.342;7.908;2024-03-08T04:15:09;3.50;99.90
48836;DHT22;62581;47.342;7.908;2024-03-08T04:17:37;3.50;99.90
48836;DHT22;62581;47.342;7.908;2024-03-08T04:20:04;3.50;99.90
48836;DHT22;62581;47.342;7.908;2024-03-08T04:22:36;3.50;99.90
48836;DHT22;62581;47.342;7.908;2024-03-08T04:25:05;3.50;99.90
48836;DHT22;62581;47.342;7.908;2024-03-08T04:27:32;3.60;99.90
48836;DHT22;62581;47.342;7.908;2024-03-08T04:30:00;3.60;99.90
48836;DHT22;62581;47.342;7.908;2024-03-08T04:32:27;3.50;99.90
48836;DHT22;62581;47.342;7.908;2024-03-08T04:34:55;3.50;99.90
48836;DHT22;62581;47.342;7.908;2024-03-08T04:37:22;3.50;99.90
48836;DHT22;62581;47.342;7.908;2024-03-08T04:39:51;3.50;99.90
48836;DHT22;62581;47.342;7.908;2024-03-08T04:42:17;3.50;99.90
48836;DHT22;62581;47.342;7.908;2024-03-08T04:44:45;3.50;99.90
48836;DHT22;62581;47.342;7.908;2024-03-08T04:47:12;3.50;99.90
48836;DHT22;62581;47.342;7.908;2024-03-08T04:49:39;3.60;99.90
48836;DHT22;62581;47.342;7.908;2024-03-08T04:52:06;3.60;99.90
48836;DHT22;62581;47.342;7.908;2024-03-08T04:54:33;3.50;99.90
48836;DHT22;62581;47.342;7.908;2024-03-08T04:57:02;3.60;99.90
48836;DHT22;62581;47.342;7.908;2024-03-08T04:59:30;3.60;99.90
48836;DHT22;62581;47.342;7.908;2024-03-08T05:01:57;3.60;99.90
48836;DHT22;62581;47.342;7.908;2024-03-08T05:04:24;3.60;99.90
48836;DHT22;62581;47.342;7.908;2024-03-08T05:06:51;3.60;99.90
48836;DHT22;62581;47.342;7.908;2024-03-08T05:09:19;3.70;99.90
48836;DHT22;62581;47.342;7.908;2024-03-08T05:11:47;3.70;99.90
48836;DHT22;62581;47.342;7.908;2024-03-08T05:14:15;3.80;99.90
48836;DHT22;62581;47.342;7.908;2024-03-08T05:16:45;3.80;99.90
48836;DHT22;62581;47.342;7.908;2024-03-08T05:19:13;3.80;99.90
48836;DHT22;62581;47.342;7.908;2024-03-08T05:21:42;3.80;99.90
48836;DHT22;62581;47.342;7.908;2024-03-08T05:24:09;3.80;99.90
48836;DHT22;62581;47.342;7.908;2024-03-08T05:26:36;3.80;99.90
48836;DHT22;62581;47.342;7.908;2024-03-08T05:29:04;3.80;99.90
48836;DHT22;62581;47.342;7.908;2024-03-08T05:31:38;3.90;99.90
48836;DHT22;62581;47.342;7.908;2024-03-08T05:34:06;3.80;99.90
48836;DHT22;62581;47.342;7.908;2024-03-08T05:36:35;3.80;99.90
48836;DHT22;62581;47.342;7.908;2024-03-08T05:39:02;3.80;99.90
48836;DHT22;62581;47.342;7.908;2024-03-08T05:41:32;3.90;99.90
48836;DHT22;62581;47.342;7.908;2024-03-08T05:43:59;3.90;99.90
48836;DHT22;62581;47.342;7.908;2024-03-08T05:46:26;3.90;99.90
48836;DHT22;62581;47.342;7.908;2024-03-08T05:48:54;3.90;99.90
48836;DHT22;62581;47.342;7.908;2024-03-08T05:51:23;4.00;99.90
48836;DHT22;62581;47.342;7.908;2024-03-08T05:53:51;3.90;99.90
48836;DHT22;62581;47.342;7.908;2024-03-08T05:56:19;3.90;99.90
48836;DHT22;62581;47.342;7.908;2024-03-08T05:58:46;4.00;99.90
48836;DHT22;62581;47.342;7.908;2024-03-08T06:01:15;4.00;99.90
48836;DHT22;62581;47.342;7.908;2024-03-08T06:03:42;4.00;99.90
48836;DHT22;62581;47.342;7.908;2024-03-08T06:06:12;4.10;99.90
48836;DHT22;62581;47.342;7.908;2024-03-08T06:08:39;4.00;99.90
48836;DHT22;62581;47.342;7.908;2024-03-08T06:11:08;4.10;99.90
48836;DHT22;62581;47.342;7.908;2024-03-08T06:13:35;4.20;99.90
48836;DHT22;62581;47.342;7.908;2024-03-08T06:16:02;4.20;99.90
48836;DHT22;62581;47.342;7.908;2024-03-08T06:18:30;4.20;99.90
48836;DHT22;62581;47.342;7.908;2024-03-08T06:20:57;4.30;99.90
48836;DHT22;62581;47.342;7.908;2024-03-08T06:23:25;4.40;99.90
48836;DHT22;62581;47.342;7.908;2024-03-08T06:25:53;4.40;99.90
48836;DHT22;62581;47.342;7.908;2024-03-08T06:28:20;4.40;99.90
48836;DHT22;62581;47.342;7.908;2024-03-08T06:30:47;4.40;99.90
48836;DHT22;62581;47.342;7.908;2024-03-08T06:33:16;4.50;99.90
48836;DHT22;62581;47.342;7.908;2024-03-08T06:35:43;4.50;99.90
48836;DHT22;62581;47.342;7.908;2024-03-08T06:38:10;4.50;99.90
48836;DHT22;62581;47.342;7.908;2024-03-08T06:40:39;4.50;99.90
48836;DHT22;62581;47.342;7.908;2024-03-08T06:43:06;4.50;99.90
48836;DHT22;62581;47.342;7.908;2024-03-08T06:45:33;4.60;99.90
48836;DHT22;62581;47.342;7.908;2024-03-08T06:48:03;4.60;99.90
48836;DHT22;62581;47.342;7.908;2024-03-08T06:50:35;4.60;99.90
48836;DHT22;62581;47.342;7.908;2024-03-08T06:53:02;4.70;99.90
48836;DHT22;62581;47.342;7.908;2024-03-08T06:55:29;4.70;99.90
48836;DHT22;62581;47.342;7.908;2024-03-08T06:57:58;4.70;99.90
48836;DHT22;62581;47.342;7.908;2024-03-08T07:00:25;4.80;99.90
48836;DHT22;62581;47.342;7.908;2024-03-08T07:02:54;4.80;99.90
48836;DHT22;62581;47.342;7.908;2024-03-08T07:05:21;4.80;99.90
48836;DHT22;62581;47.342;7.908;2024-03-08T07:07:49;4.80;99.90
48836;DHT22;62581;47.342;7.908;2024-03-08T07:10:16;4.80;99.90
48836;DHT22;62581;47.342;7.908;2024-03-08T07:12:44;4.90;99.90
48836;DHT22;62581;47.342;7.908;2024-03-08T07:15:13;4.90;99.90
48836;DHT22;62581;47.342;7.908;2024-03-08T07:17:40;4.90;99.90
48836;DHT22;62581;47.342;7.908;2024-03-08T07:20:11;4.90;99.90
48836;DHT22;62581;47.342;7.908;2024-03-08T07:22:39;5.00;99.90
48836;DHT22;62581;47.342;7.908;2024-03-08T07:25:06;5.00;99.90
48836;DHT22;62581;47.342;7.908;2024-03-08T07:27:46;5.00;99.90
48836;DHT22;62581;47.342;7.908;2024-03-08T07:30:15;5.10;99.90
48836;DHT22;62581;47.342;7.908;2024-03-08T07:33:04;5.10;99.90
48836;DHT22;62581;47.342;7.908;2024-03-08T07:35:33;5.20;99.90
48836;DHT22;62581;47.342;7.908;2024-03-08T07:38:03;5.20;99.90
48836;DHT22;62581;47.342;7.908;2024-03-08T07:40:31;5.20;99.90
48836;DHT22;62581;47.342;7.908;2024-03-08T07:42:58;5.20;99.90
48836;DHT22;62581;47.342;7.908;2024-03-08T07:45:27;5.20;99.90
48836;DHT22;62581;47.342;7.908;2024-03-08T07:47:54;5.30;99.90
48836;DHT22;62581;47.342;7.908;2024-03-08T07:50:21;5.30;99.90
48836;DHT22;62581;47.342;7.908;2024-03-08T07:52:48;5.30;99.90
48836;DHT22;62581;47.342;7.908;2024-03-08T07:55:16;5.30;99.90
48836;DHT22;62581;47.342;7.908;2024-03-08T07:57:43;5.30;99.90
48836;DHT22;62581;47.342;7.908;2024-03-08T08:00:10;5.40;99.90
48836;DHT22;62581;47.342;7.908;2024-03-08T08:02:44;5.40;99.90
48836;DHT22;62581;47.342;7.908;2024-03-08T08:05:12;5.50;99.90
48836;DHT22;62581;47.342;7.908;2024-03-08T08:07:39;5.50;99.90
48836;DHT22;62581;47.342;7.908;2024-03-08T08:10:09;5.50;99.90
48836;DHT22;62581;47.342;7.908;2024-03-08T08:12:42;5.60;99.90
48836;DHT22;62581;47.342;7.908;2024-03-08T08:15:09;5.60;99.90
48836;DHT22;62581;47.342;7.908;2024-03-08T08:17:36;5.60;99.90
48836;DHT22;62581;47.342;7.908;2024-03-08T08:20:06;5.60;99.90
48836;DHT22;62581;47.342;7.908;2024-03-08T08:22:34;5.60;99.90
48836;DHT22;62581;47.342;7.908;2024-03-08T08:25:01;5.70;99.90
48836;DHT22;62581;47.342;7.908;2024-03-08T08:27:28;5.70;99.90
48836;DHT22;62581;47.342;7.908;2024-03-08T08:29:55;5.80;99.90
48836;DHT22;62581;47.342;7.908;2024-03-08T08:32:22;5.80;99.90
48836;DHT22;62581;47.342;7.908;2024-03-08T08:34:49;5.80;99.90
48836;DHT22;62581;47.342;7.908;2024-03-08T08:37:18;5.80;99.90
48836;DHT22;62581;47.342;7.908;2024-03-08T08:39:45;5.90;99.90
48836;DHT22;62581;47.342;7.908;2024-03-08T08:42:12;5.90;99.90
48836;DHT22;62581;47.342;7.908;2024-03-08T08:44:39;5.80;99.90
48836;DHT22;62581;47.342;7.908;2024-03-08T08:47:06;5.80;99.90
48836;DHT22;62581;47.342;7.908;2024-03-08T08:49:33;5.80;99.90
48836;DHT22;62581;47.342;7.908;2024-03-08T08:52:00;5.90;99.90
48836;DHT22;62581;47.342;7.908;2024-03-08T08:54:30;5.90;99.90
48836;DHT22;62581;47.342;7.908;2024-03-08T08:56:57;6.00;99.90
48836;DHT22;62581;47.342;7.908;2024-03-08T08:59:24;6.00;99.90
48836;DHT22;62581;47.342;7.908;2024-03-08T09:01:52;6.00;99.90
48836;DHT22;62581;47.342;7.908;2024-03-08T09:04:19;6.00;99.90
48836;DHT22;62581;47.342;7.908;2024-03-08T09:06:48;6.10;99.90
48836;DHT22;62581;47.342;7.908;2024-03-08T09:09:15;6.00;99.90
48836;DHT22;62581;47.342;7.908;2024-03-08T09:11:44;6.10;99.90
48836;DHT22;62581;47.342;7.908;2024-03-08T09:14:11;6.30;99.90
48836;DHT22;62581;47.342;7.908;2024-03-08T09:16:38;6.30;99.90
48836;DHT22;62581;47.342;7.908;2024-03-08T09:19:05;6.40;99.90
48836;DHT22;62581;47.342;7.908;2024-03-08T09:21:33;6.40;99.90
48836;DHT22;62581;47.342;7.908;2024-03-08T09:24:00;6.50;99.90
48836;DHT22;62581;47.342;7.908;2024-03-08T09:26:27;6.50;99.90
48836;DHT22;62581;47.342;7.908;2024-03-08T09:28:56;6.70;99.90
48836;DHT22;62581;47.342;7.908;2024-03-08T09:31:23;6.70;99.90
48836;DHT22;62581;47.342;7.908;2024-03-08T09:33:50;6.70;99.90
48836;DHT22;62581;47.342;7.908;2024-03-08T09:36:17;6.80;99.90
48836;DHT22;62581;47.342;7.908;2024-03-08T09:38:45;6.90;99.90
48836;DHT22;62581;47.342;7.908;2024-03-08T09:41:13;6.90;99.90
48836;DHT22;62581;47.342;7.908;2024-03-08T09:43:40;7.00;99.90
48836;DHT22;62581;47.342;7.908;2024-03-08T09:46:09;7.00;99.90
48836;DHT22;62581;47.342;7.908;2024-03-08T09:48:37;7.10;99.90
48836;DHT22;62581;47.342;7.908;2024-03-08T09:51:07;7.20;99.90
48836;DHT22;62581;47.342;7.908;2024-03-08T09:53:39;7.20;99.90
48836;DHT22;62581;47.342;7.908;2024-03-08T09:56:07;7.20;99.90
48836;DHT22;62581;47.342;7.908;2024-03-08T09:58:35;7.20;99.90
48836;DHT22;62581;47.342;7.908;2024-03-08T10:01:21;7.30;99.90
48836;DHT22;62581;47.342;7.908;2024-03-08T10:03:48;7.30;99.90
48836;DHT22;62581;47.342;7.908;2024-03-08T10:06:16;7.30;99.90
48836;DHT22;62581;47.342;7.908;2024-03-08T10:08:43;7.40;99.90
48836;DHT22;62581;47.342;7.908;2024-03-08T10:11:10;7.50;99.90
48836;DHT22;62581;47.342;7.908;2024-03-08T10:13:38;7.50;99.90
48836;DHT22;62581;47.342;7.908;2024-03-08T10:16:07;7.60;99.90
48836;DHT22;62581;47.342;7.908;2024-03-08T10:18:36;7.70;99.90
48836;DHT22;62581;47.342;7.908;2024-03-08T10:21:06;7.70;99.90
48836;DHT22;62581;47.342;7.908;2024-03-08T10:23:36;7.70;99.90
48836;DHT22;62581;47.342;7.908;2024-03-08T10:26:10;7.80;99.90
48836;DHT22;62581;47.342;7.908;2024-03-08T10:28:40;7.80;99.90
48836;DHT22;62581;47.342;7.908;2024-03-08T10:31:08;7.90;99.90
48836;DHT22;62581;47.342;7.908;2024-03-08T10:33:38;7.90;99.90
48836;DHT22;62581;47.342;7.908;2024-03-08T10:36:07;7.90;99.90
48836;DHT22;62581;47.342;7.908;2024-03-08T10:38:36;7.90;99.90
48836;DHT22;62581;47.342;7.908;2024-03-08T10:41:05;8.00;99.90
48836;DHT22;62581;47.342;7.908;2024-03-08T10:43:38;8.10;99.90
48836;DHT22;62581;47.342;7.908;2024-03-08T10:46:18;8.10;99.90
48836;DHT22;62581;47.342;7.908;2024-03-08T10:48:52;8.20;99.90
48836;DHT22;62581;47.342;7.908;2024-03-08T10:51:22;8.30;99.90
48836;DHT22;62581;47.342;7.908;2024-03-08T10:53:51;8.30;99.90
48836;DHT22;62581;47.342;7.908;2024-03-08T10:56:19;8.30;99.90
48836;DHT22;62581;47.342;7.908;2024-03-08T10:58:48;8.40;99.90
48836;DHT22;62581;47.342;7.908;2024-03-08T11:01:16;8.50;99.90
48836;DHT22;62581;47.342;7.908;2024-03-08T11:03:47;8.50;99.90
48836;DHT22;62581;47.342;7.908;2024-03-08T11:06:31;8.60;99.90
48836;DHT22;62581;47.342;7.908;2024-03-08T11:09:10;8.70;99.90
48836;DHT22;62581;47.342;7.908;2024-03-08T11:11:43;8.90;99.90
48836;DHT22;62581;47.342;7.908;2024-03-08T11:14:42;8.80;99.90
48836;DHT22;62581;47.342;7.908;2024-03-08T11:17:13;8.90;99.90
48836;DHT22;62581;47.342;7.908;2024-03-08T11:19:46;9.00;99.90
48836;DHT22;62581;47.342;7.908;2024-03-08T11:22:23;9.10;99.90
48836;DHT22;62581;47.342;7.908;2024-03-08T11:24:52;9.20;99.90
48836;DHT22;62581;47.342;7.908;2024-03-08T11:27:19;9.30;99.90
48836;DHT22;62581;47.342;7.908;2024-03-08T11:30:00;9.40;99.90
48836;DHT22;62581;47.342;7.908;2024-03-08T11:32:35;9.50;99.90
48836;DHT22;62581;47.342;7.908;2024-03-08T11:35:06;9.60;99.90
48836;DHT22;62581;47.342;7.908;2024-03-08T11:37:35;9.60;99.90
48836;DHT22;62581;47.342;7.908;2024-03-08T11:40:12;9.60;99.90
48836;DHT22;62581;47.342;7.908;2024-03-08T11:42:44;9.70;99.90
48836;DHT22;62581;47.342;7.908;2024-03-08T11:45:12;9.80;99.90
48836;DHT22;62581;47.342;7.908;2024-03-08T11:47:41;9.90;99.90
48836;DHT22;62581;47.342;7.908;2024-03-08T11:50:11;9.80;99.90
48836;DHT22;62581;47.342;7.908;2024-03-08T11:52:40;9.90;99.90
48836;DHT22;62581;47.342;7.908;2024-03-08T11:55:08;10.10;99.90
48836;DHT22;62581;47.342;7.908;2024-03-08T11:57:36;10.20;99.90
48836;DHT22;62581;47.342;7.908;2024-03-08T12:00:04;10.20;99.90
48836;DHT22;62581;47.342;7.908;2024-03-08T12:02:33;10.30;99.90
48836;DHT22;62581;47.342;7.908;2024-03-08T12:05:04;10.40;99.90
48836;DHT22;62581;47.342;7.908;2024-03-08T12:07:35;11.50;99.90
48836;DHT22;62581;47.342;7.908;2024-03-08T12:10:17;11.70;99.90
48836;DHT22;62581;47.342;7.908;2024-03-08T12:12:44;11.70;99.90
48836;DHT22;62581;47.342;7.908;2024-03-08T12:15:12;11.60;99.90
48836;DHT22;62581;47.342;7.908;2024-03-08T12:17:41;11.70;99.90
48836;DHT22;62581;47.342;7.908;2024-03-08T12:20:13;11.80;99.90
48836;DHT22;62581;47.342;7.908;2024-03-08T12:22:41;12.20;99.90
48836;DHT22;62581;47.342;7.908;2024-03-08T12:25:10;12.40;99.90
48836;DHT22;62581;47.342;7.908;2024-03-08T12:27:39;12.60;99.90
48836;DHT22;62581;47.342;7.908;2024-03-08T12:30:18;13.20;99.90
48836;DHT22;62581;47.342;7.908;2024-03-08T12:32:49;13.70;99.90
48836;DHT22;62581;47.342;7.908;2024-03-08T12:35:17;13.40;99.90
48836;DHT22;62581;47.342;7.908;2024-03-08T12:37:44;14.50;99.90
48836;DHT22;62581;47.342;7.908;2024-03-08T12:40:12;15.10;99.90
48836;DHT22;62581;47.342;7.908;2024-03-08T12:42:43;16.30;99.90
48836;DHT22;62581;47.342;7.908;2024-03-08T12:45:13;16.50;99.90
48836;DHT22;62581;47.342;7.908;2024-03-08T12:47:41;17.70;99.90
48836;DHT22;62581;47.342;7.908;2024-03-08T12:50:10;18.80;99.90
48836;DHT22;62581;47.342;7.908;2024-03-08T12:52:37;18.80;99.90
48836;DHT22;62581;47.342;7.908;2024-03-08T12:55:05;18.90;99.90
48836;DHT22;62581;47.342;7.908;2024-03-08T12:57:34;18.50;99.90
48836;DHT22;62581;47.342;7.908;2024-03-08T13:00:05;19.20;99.90
48836;DHT22;62581;47.342;7.908;2024-03-08T13:02:39;19.00;99.90
48836;DHT22;62581;47.342;7.908;2024-03-08T13:05:06;19.10;99.90
48836;DHT22;62581;47.342;7.908;2024-03-08T13:07:35;20.10;99.10
48836;DHT22;62581;47.342;7.908;2024-03-08T13:10:04;20.60;97.70
48836;DHT22;62581;47.342;7.908;2024-03-08T13:12:31;20.40;97.60
48836;DHT22;62581;47.342;7.908;2024-03-08T13:14:58;21.40;96.90
48836;DHT22;62581;47.342;7.908;2024-03-08T13:17:27;22.10;94.90
48836;DHT22;62581;47.342;7.908;2024-03-08T13:19:54;22.60;93.90
48836;DHT22;62581;47.342;7.908;2024-03-08T13:22:24;23.10;93.30
48836;DHT22;62581;47.342;7.908;2024-03-08T13:24:53;23.60;91.70
48836;DHT22;62581;47.342;7.908;2024-03-08T13:27:20;23.60;90.40
48836;DHT22;62581;47.342;7.908;2024-03-08T13:29:49;23.60;90.00
48836;DHT22;62581;47.342;7.908;2024-03-08T13:32:17;23.90;89.00
48836;DHT22;62581;47.342;7.908;2024-03-08T13:34:47;24.00;88.30
48836;DHT22;62581;47.342;7.908;2024-03-08T13:37:16;22.90;89.20
48836;DHT22;62581;47.342;7.908;2024-03-08T13:39:43;23.30;89.10
48836;DHT22;62581;47.342;7.908;2024-03-08T13:42:11;23.10;88.50
48836;DHT22;62581;47.342;7.908;2024-03-08T13:44:45;23.20;88.70
48836;DHT22;62581;47.342;7.908;2024-03-08T13:47:13;23.60;88.30
48836;DHT22;62581;47.342;7.908;2024-03-08T13:49:40;23.60;87.10
48836;DHT22;62581;47.342;7.908;2024-03-08T13:52:10;23.30;88.60
48836;DHT22;62581;47.342;7.908;2024-03-08T13:54:38;23.40;87.80
48836;DHT22;62581;47.342;7.908;2024-03-08T13:57:05;23.50;87.20
48836;DHT22;62581;47.342;7.908;2024-03-08T13:59:33;23.80;85.20
48836;DHT22;62581;47.342;7.908;2024-03-08T14:02:01;24.50;84.00
48836;DHT22;62581;47.342;7.908;2024-03-08T14:04:28;24.40;83.40
48836;DHT22;62581;47.342;7.908;2024-03-08T14:06:55;24.40;82.70
48836;DHT22;62581;47.342;7.908;2024-03-08T14:09:28;23.40;83.20
48836;DHT22;62581;47.342;7.908;2024-03-08T14:11:56;21.80;86.10
48836;DHT22;62581;47.342;7.908;2024-03-08T14:14:24;20.40;90.00
48836;DHT22;62581;47.342;7.908;2024-03-08T14:16:51;19.30;91.30
48836;DHT22;62581;47.342;7.908;2024-03-08T14:19:21;18.70;92.20
48836;DHT22;62581;47.342;7.908;2024-03-08T14:21:48;18.50;93.00
48836;DHT22;62581;47.342;7.908;2024-03-08T14:24:15;18.60;93.00
48836;DHT22;62581;47.342;7.908;2024-03-08T14:26:44;18.90;93.20
48836;DHT22;62581;47.342;7.908;2024-03-08T14:29:12;19.40;92.80
48836;DHT22;62581;47.342;7.908;2024-03-08T14:31:39;19.80;92.20
48836;DHT22;62581;47.342;7.908;2024-03-08T14:34:07;19.90;92.10
48836;DHT22;62581;47.342;7.908;2024-03-08T14:36:34;20.80;90.90
48836;DHT22;62581;47.342;7.908;2024-03-08T14:39:01;21.80;90.10
48836;DHT22;62581;47.342;7.908;2024-03-08T14:41:28;21.90;89.00
48836;DHT22;62581;47.342;7.908;2024-03-08T14:43:58;22.10;87.50
48836;DHT22;62581;47.342;7.908;2024-03-08T14:46:25;21.50;87.80
48836;DHT22;62581;47.342;7.908;2024-03-08T14:48:53;20.50;89.30
48836;DHT22;62581;47.342;7.908;2024-03-08T14:51:20;20.20;90.70
48836;DHT22;62581;47.342;7.908;2024-03-08T14:53:51;19.90;90.90
48836;DHT22;62581;47.342;7.908;2024-03-08T14:56:20;19.70;91.10
48836;DHT22;62581;47.342;7.908;2024-03-08T14:58:48;19.70;91.40
48836;DHT22;62581;47.342;7.908;2024-03-08T15:01:19;20.50;90.60
48836;DHT22;62581;47.342;7.908;2024-03-08T15:03:50;21.10;89.50
48836;DHT22;62581;47.342;7.908;2024-03-08T15:06:17;20.90;89.70
48836;DHT22;62581;47.342;7.908;2024-03-08T15:08:47;21.10;89.40
48836;DHT22;62581;47.342;7.908;2024-03-08T15:11:14;21.10;89.80
48836;DHT22;62581;47.342;7.908;2024-03-08T15:13:49;21.10;88.50
48836;DHT22;62581;47.342;7.908;2024-03-08T15:16:20;21.30;88.60
48836;DHT22;62581;47.342;7.908;2024-03-08T15:18:50;22.50;86.80
48836;DHT22;62581;47.342;7.908;2024-03-08T15:21:19;23.60;84.80
48836;DHT22;62581;47.342;7.908;2024-03-08T15:23:46;24.40;82.00
48836;DHT22;62581;47.342;7.908;2024-03-08T15:26:16;24.60;81.70
48836;DHT22;62581;47.342;7.908;2024-03-08T15:28:43;24.30;80.80
48836;DHT22;62581;47.342;7.908;2024-03-08T15:31:11;23.90;81.30
48836;DHT22;62581;47.342;7.908;2024-03-08T15:33:40;22.80;83.00
48836;DHT22;62581;47.342;7.908;2024-03-08T15:36:11;21.60;84.80
48836;DHT22;62581;47.342;7.908;2024-03-08T15:38:41;20.50;87.60
48836;DHT22;62581;47.342;7.908;2024-03-08T15:41:09;19.50;89.90
48836;DHT22;62581;47.342;7.908;2024-03-08T15:43:38;18.70;90.90
48836;DHT22;62581;47.342;7.908;2024-03-08T15:46:06;17.90;92.20
48836;DHT22;62581;47.342;7.908;2024-03-08T15:48:33;17.60;92.70
48836;DHT22;62581;47.342;7.908;2024-03-08T15:51:02;17.70;92.90